createdAt,value
2023-07-16T00:02:40.718Z,100893.41
2023-07-16T00:06:02.616Z,100889.19
2023-07-16T00:09:25.277Z,100888.34
2023-07-16T00:12:47.226Z,100888.63
2023-07-16T00:16:10.383Z,100900.44
2023-07-16T00:19:32.326Z,100899.13
2023-07-16T00:22:54.666Z,100891.31
2023-07-16T00:26:16.494Z,100904.63
2023-07-16T00:29:38.663Z,100899.47
2023-07-16T00:33:02.035Z,100896.19
2023-07-16T00:36:23.913Z,100895.84
2023-07-16T00:39:45.565Z,100891.66
2023-07-16T00:43:07.346Z,100900.56
2023-07-16T00:46:29.264Z,100895.38
2023-07-16T00:49:52.930Z,100896.31
2023-07-16T00:53:15.060Z,100907.84
2023-07-16T00:56:37.438Z,100902.19
2023-07-16T00:59:59.178Z,100901.16
2023-07-16T01:03:20.825Z,100906.69
2023-07-16T01:06:49.038Z,100907.72
2023-07-16T01:10:11.422Z,100906.34
2023-07-16T01:13:33.982Z,100914.16
2023-07-16T01:17:00.088Z,100911.72
2023-07-16T01:20:22.127Z,100915.53
2023-07-16T01:24:16.125Z,100909.50
2023-07-16T01:28:01.978Z,100910.59
2023-07-16T01:31:25.712Z,100908.97
2023-07-16T01:34:47.594Z,100903.03
2023-07-16T01:38:12.216Z,100908.31
2023-07-16T01:41:33.870Z,100909.25
2023-07-16T01:44:55.842Z,100899.06
2023-07-16T01:48:32.511Z,100909.41
2023-07-16T01:51:54.126Z,100902.63
2023-07-16T01:55:16.008Z,100900.84
2023-07-16T01:58:37.895Z,100898.13
2023-07-16T02:01:59.623Z,100899.75
2023-07-16T02:05:22.654Z,100891.75
2023-07-16T02:08:44.798Z,100901.34
2023-07-16T02:12:07.182Z,100897.88
2023-07-16T02:15:28.772Z,100892.81
2023-07-16T02:18:50.309Z,100891.94
2023-07-16T02:22:13.360Z,100904.06
2023-07-16T02:25:35.363Z,100901.25
2023-07-16T02:28:57.019Z,100898.28
2023-07-16T02:32:19.013Z,100907.81
2023-07-16T02:35:40.951Z,100906.88
2023-07-16T02:39:04.621Z,100907.47
2023-07-16T02:42:26.452Z,100903.72
2023-07-16T02:45:48.155Z,100890.66
2023-07-16T02:49:10.077Z,100898.22
2023-07-16T02:52:31.798Z,100903.97
2023-07-16T02:55:54.932Z,100902.00
2023-07-16T02:59:16.684Z,100908.44
2023-07-16T03:02:38.827Z,100914.97
2023-07-16T03:06:00.771Z,100907.56
2023-07-16T03:09:22.457Z,100903.72
2023-07-16T03:12:45.407Z,100898.19
2023-07-16T03:16:07.401Z,100899.53
2023-07-16T03:19:29.312Z,100889.75
2023-07-16T03:22:51.043Z,100896.56
2023-07-16T03:26:12.974Z,100895.84
2023-07-16T03:29:36.637Z,100911.78
2023-07-16T03:32:58.283Z,100891.66
2023-07-16T03:36:21.240Z,100892.50
2023-07-16T03:39:43.269Z,100888.69
2023-07-16T03:43:05.072Z,100893.38
2023-07-16T03:46:28.256Z,100896.63
2023-07-16T03:49:50.300Z,100896.50
2023-07-16T03:53:12.155Z,100898.16
2023-07-16T03:56:34.256Z,100899.16
2023-07-16T03:59:56.329Z,100897.06
2023-07-16T04:03:19.403Z,100904.97
2023-07-16T04:06:41.204Z,100904.97
2023-07-16T04:10:03.041Z,100898.66
2023-07-16T04:13:24.973Z,100898.56
2023-07-16T04:16:46.691Z,100888.56
2023-07-16T04:20:11.080Z,100895.78
2023-07-16T04:23:33.022Z,100892.16
2023-07-16T04:26:54.724Z,100884.53
2023-07-16T04:30:16.426Z,100888.06
2023-07-16T04:33:38.448Z,100882.94
2023-07-16T04:37:01.853Z,100887.13
2023-07-16T04:40:23.882Z,100889.34
2023-07-16T04:43:45.677Z,100890.72
2023-07-16T04:47:07.992Z,100889.81
2023-07-16T04:50:30.100Z,100887.28
2023-07-16T04:53:54.099Z,100891.03
2023-07-16T04:57:15.946Z,100891.25
2023-07-16T05:00:37.592Z,100885.66
2023-07-16T05:03:59.675Z,100883.72
2023-07-16T05:07:21.180Z,100875.75
2023-07-16T05:10:44.375Z,100884.53
2023-07-16T05:14:06.816Z,100873.44
2023-07-16T05:17:28.771Z,100884.22
2023-07-16T05:20:50.766Z,100875.91
2023-07-16T05:24:12.380Z,100887.94
2023-07-16T05:27:36.828Z,100888.63
2023-07-16T05:31:02.434Z,100888.16
2023-07-16T05:34:24.527Z,100890.34
2023-07-16T05:37:46.455Z,100882.53
2023-07-16T05:41:08.117Z,100892.00
2023-07-16T05:44:31.385Z,100882.81
2023-07-16T05:47:53.336Z,100886.13
2023-07-16T05:51:15.214Z,100881.31
2023-07-16T05:54:37.115Z,100884.09
2023-07-16T05:57:58.864Z,100883.69
2023-07-16T06:01:22.021Z,100881.19
2023-07-16T06:04:44.046Z,100880.63
2023-07-16T06:08:06.267Z,100888.28
2023-07-16T06:11:28.215Z,100888.28
2023-07-16T06:14:50.121Z,100875.97
2023-07-16T06:18:15.155Z,100879.03
2023-07-16T06:21:38.428Z,100874.41
2023-07-16T06:25:00.643Z,100867.97
2023-07-16T06:28:22.519Z,100866.47
2023-07-16T06:31:45.670Z,100867.91
2023-07-16T06:35:09.933Z,100864.97
2023-07-16T06:38:32.288Z,100870.03
2023-07-16T06:41:54.022Z,100856.34
2023-07-16T06:45:15.954Z,100853.81
2023-07-16T06:48:37.616Z,100835.03
2023-07-16T06:52:03.122Z,100836.06
2023-07-16T06:55:24.648Z,100842.91
2023-07-16T06:58:46.550Z,100835.78
2023-07-16T07:02:08.866Z,100829.81
2023-07-16T07:05:30.570Z,100822.59
2023-07-16T07:08:53.916Z,100831.63
2023-07-16T07:12:15.851Z,100821.94
2023-07-16T07:15:37.793Z,100823.47
2023-07-16T07:18:59.874Z,100805.06
2023-07-16T07:22:23.072Z,100823.34
2023-07-16T07:25:50.460Z,100807.09
2023-07-16T07:29:12.045Z,100806.78
2023-07-16T07:32:33.977Z,100803.41
2023-07-16T07:35:56.677Z,100796.53
2023-07-16T07:39:19.058Z,100796.88
2023-07-16T07:42:42.433Z,100787.34
2023-07-16T07:46:04.712Z,100792.66
2023-07-16T07:49:26.334Z,100789.97
2023-07-16T07:52:48.205Z,100783.44
2023-07-16T07:56:10.042Z,100784.28
2023-07-16T07:59:33.409Z,100783.59
2023-07-16T08:02:55.421Z,100785.09
2023-07-16T08:06:18.226Z,100794.81
2023-07-16T08:09:40.359Z,100784.44
2023-07-16T08:13:03.165Z,100776.03
2023-07-16T08:16:26.540Z,100771.66
2023-07-16T08:19:48.629Z,100758.41
2023-07-16T08:23:10.755Z,100766.75
2023-07-16T08:26:32.664Z,100772.81
2023-07-16T08:29:54.438Z,100759.56
2023-07-16T08:33:17.652Z,100753.88
2023-07-16T08:36:40.001Z,100751.00
2023-07-16T08:40:01.844Z,100745.63
2023-07-16T08:43:24.633Z,100739.94
2023-07-16T08:46:46.713Z,100739.44
2023-07-16T08:50:11.646Z,100730.41
2023-07-16T08:53:33.627Z,100735.56
2023-07-16T08:56:55.612Z,100738.34
2023-07-16T09:00:18.890Z,100741.63
2023-07-16T09:03:40.809Z,100730.22
2023-07-16T09:07:04.173Z,100721.88
2023-07-16T09:10:26.210Z,100725.03
2023-07-16T09:13:48.087Z,100729.66
2023-07-16T09:17:10.174Z,100724.59
2023-07-16T09:20:32.931Z,100714.28
2023-07-16T09:23:55.939Z,100715.78
2023-07-16T09:27:18.354Z,100713.56
2023-07-16T09:30:40.492Z,100700.63
2023-07-16T09:34:02.193Z,100692.41
2023-07-16T09:37:23.916Z,100684.28
2023-07-16T09:40:47.752Z,100692.81
2023-07-16T09:44:09.992Z,100688.44
2023-07-16T09:47:31.907Z,100692.59
2023-07-16T09:50:55.517Z,100684.09
2023-07-16T09:54:17.567Z,100675.84
2023-07-16T09:57:44.061Z,100679.84
2023-07-16T10:01:07.133Z,100671.41
2023-07-16T10:04:39.470Z,100683.66
2023-07-16T10:08:02.184Z,100681.50
2023-07-16T10:11:24.137Z,100681.50
2023-07-16T10:14:48.959Z,100680.66
2023-07-16T10:18:10.712Z,100675.13
2023-07-16T10:21:39.700Z,100682.69
2023-07-16T10:25:01.853Z,100675.91
2023-07-16T10:28:23.685Z,100668.88
2023-07-16T10:31:48.709Z,100669.56
2023-07-16T10:35:11.740Z,100664.69
2023-07-16T10:38:43.258Z,100668.47
2023-07-16T10:42:05.397Z,100655.50
2023-07-16T10:45:27.355Z,100638.63
2023-07-16T10:48:50.774Z,100646.13
2023-07-16T10:52:12.763Z,100640.81
2023-07-16T10:55:39.242Z,100639.25
2023-07-16T10:59:01.098Z,100633.97
2023-07-16T11:02:24.596Z,100617.06
2023-07-16T11:05:49.621Z,100609.47
2023-07-16T11:09:12.045Z,100610.94
2023-07-16T11:12:34.042Z,100614.00
2023-07-16T11:15:55.973Z,100618.78
2023-07-16T11:19:22.280Z,100632.00
2023-07-16T11:22:45.711Z,100627.31
2023-07-16T11:26:07.641Z,100622.16
2023-07-16T11:29:37.217Z,100625.28
2023-07-16T11:33:01.235Z,100621.56
2023-07-16T11:36:23.467Z,100604.59
2023-07-16T11:39:48.370Z,100593.66
2023-07-16T11:43:11.973Z,100582.50
2023-07-16T11:46:35.874Z,100570.31
2023-07-16T11:49:58.620Z,100557.25
2023-07-16T11:53:20.461Z,100551.75
2023-07-16T11:56:43.424Z,100554.75
2023-07-16T12:00:06.911Z,100554.81
2023-07-16T12:03:28.671Z,100548.78
2023-07-16T12:06:50.471Z,100544.75
2023-07-16T12:10:12.419Z,100546.28
2023-07-16T12:13:35.451Z,100528.31
2023-07-16T12:16:57.806Z,100511.06
2023-07-16T12:20:19.400Z,100522.53
2023-07-16T12:23:41.057Z,100522.97
2023-07-16T12:27:03.092Z,100517.97
2023-07-16T12:30:26.819Z,100519.28
2023-07-16T12:33:50.079Z,100521.00
2023-07-16T12:37:12.722Z,100538.94
2023-07-16T12:40:40.687Z,100528.03
2023-07-16T12:44:02.391Z,100526.84
2023-07-16T12:47:25.875Z,100518.19
2023-07-16T12:50:47.838Z,100509.66
2023-07-16T12:54:09.433Z,100503.66
2023-07-16T12:57:31.357Z,100503.09
2023-07-16T13:00:53.062Z,100482.81
2023-07-16T13:04:16.360Z,100503.50
2023-07-16T13:07:40.841Z,100491.28
2023-07-16T13:11:03.046Z,100486.91
2023-07-16T13:14:24.884Z,100485.91
2023-07-16T13:17:46.666Z,100480.94
2023-07-16T13:21:12.003Z,100484.28
2023-07-16T13:24:33.791Z,100476.53
2023-07-16T13:27:55.487Z,100459.19
2023-07-16T13:31:17.642Z,100468.91
2023-07-16T13:34:39.668Z,100469.66
2023-07-16T13:38:03.673Z,100452.22
2023-07-16T13:41:25.740Z,100455.13
2023-07-16T13:44:47.387Z,100457.03
2023-07-16T13:48:09.156Z,100454.78
2023-07-16T13:51:31.232Z,100462.19
2023-07-16T13:54:55.496Z,100447.31
2023-07-16T13:58:17.170Z,100435.31
2023-07-16T14:01:44.957Z,100412.34
2023-07-16T14:05:07.350Z,100413.38
2023-07-16T14:08:29.224Z,100405.75
2023-07-16T14:11:52.356Z,100410.94
2023-07-16T14:15:14.152Z,100407.47
2023-07-16T14:18:36.104Z,100398.56
2023-07-16T14:21:57.746Z,100394.63
2023-07-16T14:25:19.473Z,100395.44
2023-07-16T14:28:42.474Z,100391.69
2023-07-16T14:32:04.644Z,100384.25
2023-07-16T14:35:36.440Z,100387.13
2023-07-16T14:38:59.313Z,100385.09
2023-07-16T14:42:21.203Z,100381.38
2023-07-16T14:45:44.612Z,100377.63
2023-07-16T14:49:07.577Z,100374.94
2023-07-16T14:52:29.189Z,100361.25
2023-07-16T14:55:51.278Z,100356.25
2023-07-16T14:59:12.874Z,100353.34
2023-07-16T15:02:36.025Z,100355.84
2023-07-16T15:05:59.252Z,100336.50
2023-07-16T15:09:21.357Z,100339.22
2023-07-16T15:12:43.426Z,100335.47
2023-07-16T15:16:05.980Z,100340.44
2023-07-16T15:19:29.009Z,100335.09
2023-07-16T15:22:50.911Z,100334.88
2023-07-16T15:26:14.267Z,100336.97
2023-07-16T15:29:36.391Z,100335.09
2023-07-16T15:32:58.086Z,100336.50
2023-07-16T15:36:21.564Z,100333.59
2023-07-16T15:39:43.351Z,100329.84
2023-07-16T15:43:05.006Z,100319.88
2023-07-16T15:46:27.076Z,100323.19
2023-07-16T15:49:48.807Z,100319.81
2023-07-16T15:53:12.266Z,100307.72
2023-07-16T15:56:34.377Z,100312.53
2023-07-16T15:59:56.102Z,100311.06
2023-07-16T16:03:18.312Z,100314.41
2023-07-16T16:06:40.300Z,100320.84
2023-07-16T16:10:03.246Z,100314.56
2023-07-16T16:13:27.546Z,100320.59
2023-07-16T16:17:05.003Z,100319.72
2023-07-16T16:20:28.381Z,100317.84
2023-07-16T16:23:50.085Z,100311.84
2023-07-16T16:27:13.252Z,100310.38
2023-07-16T16:30:35.298Z,100306.63
2023-07-16T16:33:57.260Z,100301.41
2023-07-16T16:37:18.897Z,100307.56
2023-07-16T16:40:41.596Z,100294.47
2023-07-16T16:44:05.315Z,100295.47
2023-07-16T16:47:27.057Z,100287.53
2023-07-16T16:50:48.799Z,100293.72
2023-07-16T16:54:10.877Z,100292.09
2023-07-16T16:57:33.338Z,100279.59
2023-07-16T17:00:57.184Z,100281.94
2023-07-16T17:04:19.052Z,100274.69
2023-07-16T17:07:40.997Z,100268.19
2023-07-16T17:11:02.921Z,100269.78
2023-07-16T17:14:25.000Z,100268.84
2023-07-16T17:17:48.511Z,100267.50
2023-07-16T17:21:10.226Z,100272.19
2023-07-16T17:24:32.154Z,100271.28
2023-07-16T17:27:53.919Z,100271.34
2023-07-16T17:31:15.834Z,100273.50
2023-07-16T17:34:41.072Z,100270.28
2023-07-16T17:38:02.768Z,100259.81
2023-07-16T17:41:24.458Z,100262.16
2023-07-16T17:44:49.064Z,100271.91
2023-07-16T17:48:10.738Z,100274.03
2023-07-16T17:51:33.781Z,100271.19
2023-07-16T17:54:55.785Z,100274.25
2023-07-16T17:58:17.654Z,100276.22
2023-07-16T18:01:39.576Z,100290.19
2023-07-16T18:05:01.746Z,100297.31
2023-07-16T18:08:25.433Z,100299.25
2023-07-16T18:11:47.872Z,100305.91
2023-07-16T18:15:11.605Z,100317.72
2023-07-16T18:18:34.804Z,100338.22
2023-07-16T18:22:19.746Z,100351.69
2023-07-16T18:25:41.386Z,100355.72
2023-07-16T18:29:03.925Z,100376.28
2023-07-16T18:32:25.936Z,100378.56
2023-07-16T18:35:50.744Z,100384.06
2023-07-16T18:39:12.759Z,100392.31
2023-07-16T18:42:35.909Z,100402.94
2023-07-16T18:45:59.250Z,100403.75
2023-07-16T18:49:20.803Z,100402.59
2023-07-16T18:52:42.686Z,100393.78
2023-07-16T18:56:05.360Z,100415.72
2023-07-16T18:59:29.210Z,100407.34
2023-07-16T19:02:51.040Z,100406.00
2023-07-16T19:06:13.170Z,100421.16
2023-07-16T19:09:34.957Z,100421.31
2023-07-16T19:12:56.651Z,100420.81
2023-07-16T19:16:20.561Z,100422.78
2023-07-16T19:19:42.796Z,100423.78
2023-07-16T19:23:04.607Z,100427.44
2023-07-16T19:26:26.402Z,100429.38
2023-07-16T19:29:47.993Z,100436.16
2023-07-16T19:33:11.268Z,100426.56
2023-07-16T19:36:33.250Z,100421.16
2023-07-16T19:39:55.132Z,100419.91
2023-07-16T19:43:17.235Z,100418.16
2023-07-16T19:46:39.022Z,100404.69
2023-07-16T19:50:06.329Z,100398.09
2023-07-16T19:53:27.917Z,100410.44
2023-07-16T19:56:49.615Z,100424.16
2023-07-16T20:00:13.245Z,100434.81
2023-07-16T20:03:35.089Z,100448.75
2023-07-16T20:07:10.796Z,100455.38
2023-07-16T20:10:33.828Z,100443.50
2023-07-16T20:13:55.768Z,100445.59
2023-07-16T20:17:18.467Z,100421.00
2023-07-16T20:20:40.135Z,100424.31
2023-07-16T20:24:04.328Z,100426.84
2023-07-16T20:27:26.548Z,100414.38
2023-07-16T20:30:48.726Z,100419.16
2023-07-16T20:34:10.646Z,100418.38
2023-07-16T20:37:32.848Z,100422.03
2023-07-16T20:40:57.275Z,100419.13
2023-07-16T20:44:18.915Z,100429.66
2023-07-16T20:47:40.764Z,100432.31
2023-07-16T20:51:02.395Z,100436.00
2023-07-16T20:54:27.142Z,100430.78
2023-07-16T20:57:51.474Z,100438.78
2023-07-16T21:01:14.886Z,100438.00
2023-07-16T21:04:37.107Z,100441.38
2023-07-16T21:07:58.743Z,100447.16
2023-07-16T21:11:21.022Z,100434.84
2023-07-16T21:14:43.976Z,100435.72
2023-07-16T21:18:05.876Z,100440.03
2023-07-16T21:21:27.617Z,100441.59
2023-07-16T21:24:50.607Z,100436.81
2023-07-16T21:28:12.202Z,100432.50
2023-07-16T21:31:35.698Z,100437.25
2023-07-16T21:34:57.213Z,100447.34
2023-07-16T21:38:19.092Z,100441.34
2023-07-16T21:41:41.068Z,100442.31
2023-07-16T21:45:03.227Z,100440.91
2023-07-16T21:48:27.398Z,100446.94
2023-07-16T21:51:49.365Z,100438.41
2023-07-16T21:55:12.534Z,100439.28
2023-07-16T21:58:34.648Z,100443.59
2023-07-16T22:01:56.500Z,100445.00
2023-07-16T22:05:20.165Z,100442.34
2023-07-16T22:08:42.180Z,100441.69
2023-07-16T22:12:04.034Z,100431.31
2023-07-16T22:15:25.848Z,100443.91
2023-07-16T22:18:47.641Z,100441.81
2023-07-16T22:22:10.837Z,100434.97
2023-07-16T22:25:33.012Z,100441.28
2023-07-16T22:28:55.003Z,100430.47
2023-07-16T22:32:16.698Z,100434.41
2023-07-16T22:35:39.217Z,100430.38
2023-07-16T22:39:02.454Z,100435.25
2023-07-16T22:42:26.093Z,100444.50
2023-07-16T22:45:48.067Z,100457.19
2023-07-16T22:49:09.861Z,100458.59
2023-07-16T22:52:31.557Z,100461.53
2023-07-16T22:55:54.665Z,100449.91
2023-07-16T22:59:16.685Z,100458.19
2023-07-16T23:02:38.408Z,100453.56
2023-07-16T23:06:00.962Z,100454.81
2023-07-16T23:09:22.941Z,100459.59
2023-07-16T23:12:46.496Z,100465.25
2023-07-16T23:16:08.945Z,100462.19
2023-07-16T23:19:32.042Z,100454.06
2023-07-16T23:22:53.921Z,100449.44
2023-07-16T23:26:15.874Z,100452.97
2023-07-16T23:29:40.407Z,100443.16
2023-07-16T23:33:02.288Z,100454.34
2023-07-16T23:36:24.182Z,100460.75
2023-07-16T23:39:46.122Z,100460.03
2023-07-16T23:43:07.877Z,100458.50
2023-07-16T23:46:31.306Z,100458.09
2023-07-16T23:49:53.052Z,100450.50
2023-07-16T23:53:14.589Z,100462.94
2023-07-16T23:56:36.558Z,100459.75
2023-07-16T23:59:58.388Z,100455.53
